sensor_id;sensor_type;location;lat;lon;timestamp;noise_LAeq;noise_LA_min;noise_LA_max;noise_LA01;noise_LA95
43787;Laerm;29409;49.306;8.500;2023-03-01T00:00:15;40.50;35.94;48.38;;
43787;Laerm;29409;49.306;8.500;2023-03-01T00:01:16;39.36;35.66;41.96;;
43787;Laerm;29409;49.306;8.500;2023-03-01T00:02:18;39.45;35.36;41.89;;
43787;Laerm;29409;49.306;8.500;2023-03-01T00:03:18;40.02;35.94;44.65;;
43787;Laerm;29409;49.306;8.500;2023-03-01T00:04:18;40.07;36.45;42.65;;
43787;Laerm;29409;49.306;8.500;2023-03-01T00:05:18;39.73;36.45;42.35;;
43787;Laerm;29409;49.306;8.500;2023-03-01T00:06:19;40.15;36.20;43.19;;
43787;Laerm;29409;49.306;8.500;2023-03-01T00:07:20;39.37;34.69;42.22;;
43787;Laerm;29409;49.306;8.500;2023-03-01T00:08:20;39.34;35.04;41.82;;
43787;Laerm;29409;49.306;8.500;2023-03-01T00:09:20;39.12;34.31;41.61;;
43787;Laerm;29409;49.306;8.500;2023-03-01T00:10:21;39.19;35.66;41.68;;
43787;Laerm;29409;49.306;8.500;2023-03-01T00:11:22;39.54;35.66;43.09;;
43787;Laerm;29409;49.306;8.500;2023-03-01T00:12:23;39.78;36.45;43.19;;
43787;Laerm;29409;49.306;8.500;2023-03-01T00:13:23;40.15;35.94;46.43;;
43787;Laerm;29409;49.306;8.500;2023-03-01T00:14:24;39.93;36.45;42.59;;
43787;Laerm;29409;49.306;8.500;2023-03-01T00:15:24;39.79;36.45;45.30;;
43787;Laerm;29409;49.306;8.500;2023-03-01T00:16:29;39.47;35.04;43.14;;
43787;Laerm;29409;49.306;8.500;2023-03-01T00:17:29;39.77;35.94;42.76;;
43787;Laerm;29409;49.306;8.500;2023-03-01T00:18:30;40.03;36.45;43.24;;
43787;Laerm;29409;49.306;8.500;2023-03-01T00:19:31;39.77;36.69;42.42;;
43787;Laerm;29409;49.306;8.500;2023-03-01T00:20:32;39.86;35.94;42.71;;
43787;Laerm;29409;49.306;8.500;2023-03-01T00:21:32;41.01;36.69;49.02;;
43787;Laerm;29409;49.306;8.500;2023-03-01T00:22:35;39.76;36.45;48.49;;
43787;Laerm;29409;49.306;8.500;2023-03-01T00:23:36;39.82;36.45;42.35;;
43787;Laerm;29409;49.306;8.500;2023-03-01T00:24:36;39.99;36.91;44.15;;
43787;Laerm;29409;49.306;8.500;2023-03-01T00:25:40;41.45;37.32;48.02;;
43787;Laerm;29409;49.306;8.500;2023-03-01T00:26:41;40.34;36.91;42.65;;
43787;Laerm;29409;49.306;8.500;2023-03-01T00:27:41;40.22;36.45;42.59;;
43787;Laerm;29409;49.306;8.500;2023-03-01T00:28:42;39.94;36.69;43.44;;
43787;Laerm;29409;49.306;8.500;2023-03-01T00:29:42;39.71;35.04;42.76;;
43787;Laerm;29409;49.306;8.500;2023-03-01T00:30:42;39.57;36.45;42.29;;
43787;Laerm;29409;49.306;8.500;2023-03-01T00:31:43;39.92;36.69;42.71;;
43787;Laerm;29409;49.306;8.500;2023-03-01T00:32:43;40.10;35.36;42.29;;
43787;Laerm;29409;49.306;8.500;2023-03-01T00:33:43;39.64;36.45;42.16;;
43787;Laerm;29409;49.306;8.500;2023-03-01T00:34:44;40.83;35.94;48.15;;
43787;Laerm;29409;49.306;8.500;2023-03-01T00:35:54;39.78;35.04;42.09;;
43787;Laerm;29409;49.306;8.500;2023-03-01T00:36:54;40.02;36.91;42.76;;
43787;Laerm;29409;49.306;8.500;2023-03-01T00:37:54;43.96;37.32;60.29;;
43787;Laerm;29409;49.306;8.500;2023-03-01T00:38:57;42.03;36.69;53.20;;
43787;Laerm;29409;49.306;8.500;2023-03-01T00:39:58;39.89;36.45;43.72;;
43787;Laerm;29409;49.306;8.500;2023-03-01T00:41:02;41.92;36.91;48.32;;
43787;Laerm;29409;49.306;8.500;2023-03-01T00:42:03;39.50;36.20;41.75;;
43787;Laerm;29409;49.306;8.500;2023-03-01T00:43:03;39.78;36.45;42.41;;
43787;Laerm;29409;49.306;8.500;2023-03-01T00:44:04;41.03;37.12;47.88;;
43787;Laerm;29409;49.306;8.500;2023-03-01T00:45:04;40.24;36.20;50.44;;
43787;Laerm;29409;49.306;8.500;2023-03-01T00:46:06;39.42;35.94;42.53;;
43787;Laerm;29409;49.306;8.500;2023-03-01T00:47:06;39.71;35.94;42.16;;
43787;Laerm;29409;49.306;8.500;2023-03-01T00:48:06;39.47;35.04;42.41;;
43787;Laerm;29409;49.306;8.500;2023-03-01T00:49:07;40.04;36.91;42.76;;
43787;Laerm;29409;49.306;8.500;2023-03-01T00:50:08;40.87;37.88;43.19;;
43787;Laerm;29409;49.306;8.500;2023-03-01T00:51:09;40.24;36.69;42.71;;
43787;Laerm;29409;49.306;8.500;2023-03-01T00:52:10;40.72;37.70;43.04;;
43787;Laerm;29409;49.306;8.500;2023-03-01T00:53:10;39.97;36.69;42.53;;
43787;Laerm;29409;49.306;8.500;2023-03-01T00:54:11;40.37;36.91;42.93;;
43787;Laerm;29409;49.306;8.500;2023-03-01T00:55:11;40.64;37.12;46.76;;
43787;Laerm;29409;49.306;8.500;2023-03-01T00:56:12;40.01;36.69;42.88;;
43787;Laerm;29409;49.306;8.500;2023-03-01T00:57:13;39.65;36.20;43.29;;
43787;Laerm;29409;49.306;8.500;2023-03-01T00:58:13;39.54;36.45;42.59;;
43787;Laerm;29409;49.306;8.500;2023-03-01T00:59:14;39.53;35.94;41.96;;
43787;Laerm;29409;49.306;8.500;2023-03-01T01:00:15;39.85;35.94;42.59;;
43787;Laerm;29409;49.306;8.500;2023-03-01T01:01:23;40.85;37.12;43.44;;
43787;Laerm;29409;49.306;8.500;2023-03-01T01:02:24;40.34;36.69;43.44;;
43787;Laerm;29409;49.306;8.500;2023-03-01T01:03:26;40.30;37.52;42.41;;
43787;Laerm;29409;49.306;8.500;2023-03-01T01:04:26;40.16;36.91;42.22;;
43787;Laerm;29409;49.306;8.500;2023-03-01T01:05:27;42.53;38.37;46.05;;
43787;Laerm;29409;49.306;8.500;2023-03-01T01:06:28;40.71;37.12;45.01;;
43787;Laerm;29409;49.306;8.500;2023-03-01T01:07:29;40.19;36.69;42.93;;
43787;Laerm;29409;49.306;8.500;2023-03-01T01:08:29;40.49;37.53;42.59;;
43787;Laerm;29409;49.306;8.500;2023-03-01T01:09:29;40.68;37.52;42.98;;
43787;Laerm;29409;49.306;8.500;2023-03-01T01:10:30;41.25;37.70;44.73;;
43787;Laerm;29409;49.306;8.500;2023-03-01T01:11:30;41.53;38.81;43.99;;
43787;Laerm;29409;49.306;8.500;2023-03-01T01:12:31;41.13;37.88;43.14;;
43787;Laerm;29409;49.306;8.500;2023-03-01T01:13:32;41.20;38.02;46.79;;
43787;Laerm;29409;49.306;8.500;2023-03-01T01:14:32;40.73;37.32;44.15;;
43787;Laerm;29409;49.306;8.500;2023-03-01T01:15:33;40.72;37.32;43.14;;
43787;Laerm;29409;49.306;8.500;2023-03-01T01:16:34;40.61;37.70;42.88;;
43787;Laerm;29409;49.306;8.500;2023-03-01T01:17:34;40.51;37.32;42.93;;
43787;Laerm;29409;49.306;8.500;2023-03-01T01:18:34;40.44;36.69;42.71;;
43787;Laerm;29409;49.306;8.500;2023-03-01T01:19:35;40.51;37.17;42.82;;
43787;Laerm;29409;49.306;8.500;2023-03-01T01:20:35;40.37;37.52;42.47;;
43787;Laerm;29409;49.306;8.500;2023-03-01T01:21:36;40.50;36.10;42.59;;
43787;Laerm;29409;49.306;8.500;2023-03-01T01:22:37;40.74;37.88;42.65;;
43787;Laerm;29409;49.306;8.500;2023-03-01T01:23:38;40.81;37.70;43.72;;
43787;Laerm;29409;49.306;8.500;2023-03-01T01:24:38;40.54;37.52;42.71;;
43787;Laerm;29409;49.306;8.500;2023-03-01T01:25:38;41.76;37.88;46.38;;
43787;Laerm;29409;49.306;8.500;2023-03-01T01:26:39;42.43;37.52;51.62;;
43787;Laerm;29409;49.306;8.500;2023-03-01T01:27:39;41.96;38.67;46.62;;
43787;Laerm;29409;49.306;8.500;2023-03-01T01:28:40;44.15;38.37;54.11;;
43787;Laerm;29409;49.306;8.500;2023-03-01T01:29:40;40.29;37.32;43.09;;
43787;Laerm;29409;49.306;8.500;2023-03-01T01:30:42;39.72;36.45;41.89;;
43787;Laerm;29409;49.306;8.500;2023-03-01T01:31:42;39.85;36.20;42.88;;
43787;Laerm;29409;49.306;8.500;2023-03-01T01:32:44;40.33;36.45;47.68;;
43787;Laerm;29409;49.306;8.500;2023-03-01T01:33:45;40.06;37.12;42.41;;
43787;Laerm;29409;49.306;8.500;2023-03-01T01:34:47;40.02;36.69;43.63;;
43787;Laerm;29409;49.306;8.500;2023-03-01T01:35:47;39.51;36.20;42.09;;
43787;Laerm;29409;49.306;8.500;2023-03-01T01:36:48;39.68;36.69;43.34;;
43787;Laerm;29409;49.306;8.500;2023-03-01T01:37:49;39.73;37.12;41.82;;
43787;Laerm;29409;49.306;8.500;2023-03-01T01:38:50;40.31;36.69;42.71;;
43787;Laerm;29409;49.306;8.500;2023-03-01T01:39:50;40.23;37.32;42.71;;
43787;Laerm;29409;49.306;8.500;2023-03-01T01:40:50;40.04;36.69;42.09;;
43787;Laerm;29409;49.306;8.500;2023-03-01T01:41:51;39.99;36.20;42.29;;
43787;Laerm;29409;49.306;8.500;2023-03-01T01:42:51;40.07;36.69;42.53;;
43787;Laerm;29409;49.306;8.500;2023-03-01T01:45:31;39.51;35.94;41.89;;
43787;Laerm;29409;49.306;8.500;2023-03-01T01:46:32;39.45;35.04;42.09;;
43787;Laerm;29409;49.306;8.500;2023-03-01T01:47:32;39.78;36.45;42.29;;
43787;Laerm;29409;49.306;8.500;2023-03-01T01:48:40;40.31;37.70;42.22;;
43787;Laerm;29409;49.306;8.500;2023-03-01T01:49:45;41.80;37.12;63.28;;
43787;Laerm;29409;49.306;8.500;2023-03-01T01:50:46;40.15;36.69;52.70;;
43787;Laerm;29409;49.306;8.500;2023-03-01T01:51:53;40.08;36.91;52.55;;
43787;Laerm;29409;49.306;8.500;2023-03-01T01:52:55;39.85;36.45;42.16;;
43787;Laerm;29409;49.306;8.500;2023-03-01T01:53:58;41.22;37.12;47.40;;
43787;Laerm;29409;49.306;8.500;2023-03-01T01:56:01;40.67;37.32;43.68;;
43787;Laerm;29409;49.306;8.500;2023-03-01T01:57:03;42.37;37.88;47.74;;
43787;Laerm;29409;49.306;8.500;2023-03-01T01:58:07;39.90;36.45;43.04;;
43787;Laerm;29409;49.306;8.500;2023-03-01T01:59:08;39.63;36.69;42.03;;
43787;Laerm;29409;49.306;8.500;2023-03-01T02:00:13;39.78;36.20;42.09;;
43787;Laerm;29409;49.306;8.500;2023-03-01T02:01:15;40.05;36.91;43.55;;
43787;Laerm;29409;49.306;8.500;2023-03-01T02:02:15;40.24;36.69;42.29;;
43787;Laerm;29409;49.306;8.500;2023-03-01T02:03:20;39.82;35.66;42.47;;
43787;Laerm;29409;49.306;8.500;2023-03-01T02:04:23;40.00;36.45;42.29;;
43787;Laerm;29409;49.306;8.500;2023-03-01T02:06:31;40.20;36.45;42.65;;
43787;Laerm;29409;49.306;8.500;2023-03-01T02:07:33;40.01;36.91;42.03;;
43787;Laerm;29409;49.306;8.500;2023-03-01T02:08:35;40.37;37.52;42.29;;
43787;Laerm;29409;49.306;8.500;2023-03-01T02:09:37;40.52;37.32;42.76;;
43787;Laerm;29409;49.306;8.500;2023-03-01T02:10:37;40.47;37.32;43.19;;
43787;Laerm;29409;49.306;8.500;2023-03-01T02:11:38;40.53;37.52;43.09;;
43787;Laerm;29409;49.306;8.500;2023-03-01T02:12:39;40.62;37.70;43.44;;
43787;Laerm;29409;49.306;8.500;2023-03-01T02:13:39;40.77;37.70;43.04;;
43787;Laerm;29409;49.306;8.500;2023-03-01T02:14:40;40.41;37.12;42.88;;
43787;Laerm;29409;49.306;8.500;2023-03-01T02:15:41;40.13;36.45;42.53;;
43787;Laerm;29409;49.306;8.500;2023-03-01T02:16:41;41.50;38.21;44.83;;
43787;Laerm;29409;49.306;8.500;2023-03-01T02:17:42;40.64;37.32;42.93;;
43787;Laerm;29409;49.306;8.500;2023-03-01T02:18:42;40.16;36.20;42.35;;
43787;Laerm;29409;49.306;8.500;2023-03-01T02:19:57;39.89;35.94;42.41;;
43787;Laerm;29409;49.306;8.500;2023-03-01T02:22:06;40.82;37.88;42.98;;
43787;Laerm;29409;49.306;8.500;2023-03-01T02:23:12;40.73;37.52;43.14;;
43787;Laerm;29409;49.306;8.500;2023-03-01T02:25:33;40.88;37.88;44.47;;
43787;Laerm;29409;49.306;8.500;2023-03-01T02:26:37;41.32;38.67;43.39;;
43787;Laerm;29409;49.306;8.500;2023-03-01T02:28:59;40.63;37.12;42.93;;
43787;Laerm;29409;49.306;8.500;2023-03-01T02:30:00;40.81;37.32;44.31;;
43787;Laerm;29409;49.306;8.500;2023-03-01T02:31:00;40.51;37.32;42.71;;
43787;Laerm;29409;49.306;8.500;2023-03-01T02:32:19;40.22;36.91;42.47;;
43787;Laerm;29409;49.306;8.500;2023-03-01T02:33:25;41.23;37.88;45.14;;
43787;Laerm;29409;49.306;8.500;2023-03-01T02:34:25;40.59;37.70;43.68;;
43787;Laerm;29409;49.306;8.500;2023-03-01T02:35:27;40.97;38.21;45.69;;
43787;Laerm;29409;49.306;8.500;2023-03-01T02:36:38;47.72;38.52;63.06;;
43787;Laerm;29409;49.306;8.500;2023-03-01T02:37:40;43.91;37.52;58.21;;
43787;Laerm;29409;49.306;8.500;2023-03-01T02:38:41;40.97;37.70;43.04;;
43787;Laerm;29409;49.306;8.500;2023-03-01T02:39:46;41.35;38.52;42.93;;
43787;Laerm;29409;49.306;8.500;2023-03-01T02:40:48;40.57;37.52;42.93;;
43787;Laerm;29409;49.306;8.500;2023-03-01T02:41:50;40.81;37.88;43.34;;
43787;Laerm;29409;49.306;8.500;2023-03-01T02:42:53;40.88;38.05;42.93;;
43787;Laerm;29409;49.306;8.500;2023-03-01T02:43:54;40.65;37.70;43.04;;
43787;Laerm;29409;49.306;8.500;2023-03-01T02:44:55;40.65;38.05;43.24;;
43787;Laerm;29409;49.306;8.500;2023-03-01T02:45:57;39.88;37.32;41.89;;
43787;Laerm;29409;49.306;8.500;2023-03-01T02:46:58;41.14;37.32;48.58;;
43787;Laerm;29409;49.306;8.500;2023-03-01T02:48:01;40.86;37.70;44.38;;
43787;Laerm;29409;49.306;8.500;2023-03-01T02:49:01;40.19;37.32;42.65;;
43787;Laerm;29409;49.306;8.500;2023-03-01T02:50:02;40.90;37.70;43.09;;
43787;Laerm;29409;49.306;8.500;2023-03-01T02:51:10;42.94;39.08;50.04;;
43787;Laerm;29409;49.306;8.500;2023-03-01T02:52:30;41.11;37.32;46.07;;
43787;Laerm;29409;49.306;8.500;2023-03-01T02:54:40;40.57;37.52;42.82;;
43787;Laerm;29409;49.306;8.500;2023-03-01T02:55:43;40.30;37.52;42.71;;
43787;Laerm;29409;49.306;8.500;2023-03-01T02:56:43;40.70;38.05;42.82;;
43787;Laerm;29409;49.306;8.500;2023-03-01T02:57:45;40.89;37.52;43.44;;
43787;Laerm;29409;49.306;8.500;2023-03-01T02:58:45;41.04;37.32;45.89;;
43787;Laerm;29409;49.306;8.500;2023-03-01T02:59:52;40.88;37.52;44.51;;
43787;Laerm;29409;49.306;8.500;2023-03-01T03:00:53;40.49;36.91;42.88;;
43787;Laerm;29409;49.306;8.500;2023-03-01T03:01:54;40.55;36.91;43.19;;
43787;Laerm;29409;49.306;8.500;2023-03-01T03:02:54;40.45;37.88;42.71;;
43787;Laerm;29409;49.306;8.500;2023-03-01T03:03:57;40.76;37.87;45.23;;
43787;Laerm;29409;49.306;8.500;2023-03-01T03:05:00;40.22;37.12;42.82;;
43787;Laerm;29409;49.306;8.500;2023-03-01T03:06:00;40.22;36.69;42.98;;
43787;Laerm;29409;49.306;8.500;2023-03-01T03:07:00;40.55;35.94;42.53;;
43787;Laerm;29409;49.306;8.500;2023-03-01T03:08:01;40.62;37.52;42.71;;
43787;Laerm;29409;49.306;8.500;2023-03-01T03:09:03;40.64;37.32;42.98;;
43787;Laerm;29409;49.306;8.500;2023-03-01T03:10:04;40.46;37.52;42.82;;
43787;Laerm;29409;49.306;8.500;2023-03-01T03:11:05;41.40;37.32;46.82;;
43787;Laerm;29409;49.306;8.500;2023-03-01T03:12:08;41.41;38.21;48.08;;
43787;Laerm;29409;49.306;8.500;2023-03-01T03:13:09;44.42;38.37;61.39;;
43787;Laerm;29409;49.306;8.500;2023-03-01T03:14:11;41.22;37.88;43.49;;
43787;Laerm;29409;49.306;8.500;2023-03-01T03:15:15;41.78;37.70;47.21;;
43787;Laerm;29409;49.306;8.500;2023-03-01T03:16:15;41.43;37.70;46.20;;
43787;Laerm;29409;49.306;8.500;2023-03-01T03:17:15;41.10;38.05;45.63;;
43787;Laerm;29409;49.306;8.500;2023-03-01T03:18:16;40.68;36.91;42.98;;
43787;Laerm;29409;49.306;8.500;2023-03-01T03:19:17;40.61;37.52;43.19;;
43787;Laerm;29409;49.306;8.500;2023-03-01T03:20:20;41.14;37.70;45.69;;
43787;Laerm;29409;49.306;8.500;2023-03-01T03:21:21;41.30;38.52;44.35;;
43787;Laerm;29409;49.306;8.500;2023-03-01T03:22:21;41.38;38.81;44.89;;
43787;Laerm;29409;49.306;8.500;2023-03-01T03:23:22;41.95;38.52;47.12;;
43787;Laerm;29409;49.306;8.500;2023-03-01T03:24:22;41.94;39.08;50.05;;
43787;Laerm;29409;49.306;8.500;2023-03-01T03:25:26;41.51;39.08;43.90;;
43787;Laerm;29409;49.306;8.500;2023-03-01T03:26:27;41.52;38.81;43.86;;
43787;Laerm;29409;49.306;8.500;2023-03-01T03:27:30;42.12;39.70;44.03;;
43787;Laerm;29409;49.306;8.500;2023-03-01T03:28:32;42.32;39.58;45.01;;
43787;Laerm;29409;49.306;8.500;2023-03-01T03:29:33;42.44;39.92;44.65;;
43787;Laerm;29409;49.306;8.500;2023-03-01T03:30:34;41.66;38.67;43.49;;
43787;Laerm;29409;49.306;8.500;2023-03-01T03:31:34;41.35;38.37;43.99;;
43787;Laerm;29409;49.306;8.500;2023-03-01T03:32:35;40.96;38.21;42.82;;
43787;Laerm;29409;49.306;8.500;2023-03-01T03:33:36;40.99;38.02;43.54;;
43787;Laerm;29409;49.306;8.500;2023-03-01T03:34:36;40.78;37.70;42.85;;
43787;Laerm;29409;49.306;8.500;2023-03-01T03:35:43;40.95;38.21;42.93;;
43787;Laerm;29409;49.306;8.500;2023-03-01T03:36:44;40.98;37.88;44.97;;
43787;Laerm;29409;49.306;8.500;2023-03-01T03:37:44;41.27;38.81;43.34;;
43787;Laerm;29409;49.306;8.500;2023-03-01T03:39:03;41.44;38.37;44.03;;
43787;Laerm;29409;49.306;8.500;2023-03-01T03:40:05;41.38;38.37;44.23;;
43787;Laerm;29409;49.306;8.500;2023-03-01T03:41:15;42.16;39.34;49.18;;
43787;Laerm;29409;49.306;8.500;2023-03-01T03:42:16;41.68;39.34;44.16;;
43787;Laerm;29409;49.306;8.500;2023-03-01T03:43:17;41.54;38.95;43.49;;
43787;Laerm;29409;49.306;8.500;2023-03-01T03:44:18;41.62;39.21;43.39;;
43787;Laerm;29409;49.306;8.500;2023-03-01T03:45:18;42.77;39.21;51.97;;
43787;Laerm;29409;49.306;8.500;2023-03-01T03:46:19;41.22;38.81;43.04;;
43787;Laerm;29409;49.306;8.500;2023-03-01T03:47:19;41.72;38.37;45.89;;
43787;Laerm;29409;49.306;8.500;2023-03-01T03:48:19;41.09;37.70;42.82;;
43787;Laerm;29409;49.306;8.500;2023-03-01T03:49:20;41.10;38.21;42.93;;
43787;Laerm;29409;49.306;8.500;2023-03-01T03:50:20;41.40;37.88;44.73;;
43787;Laerm;29409;49.306;8.500;2023-03-01T03:51:20;40.68;37.88;42.88;;
43787;Laerm;29409;49.306;8.500;2023-03-01T03:52:22;40.70;37.70;44.54;;
43787;Laerm;29409;49.306;8.500;2023-03-01T03:53:23;40.30;37.32;42.59;;
43787;Laerm;29409;49.306;8.500;2023-03-01T03:54:24;40.68;37.70;42.76;;
43787;Laerm;29409;49.306;8.500;2023-03-01T03:55:24;40.54;37.88;42.59;;
43787;Laerm;29409;49.306;8.500;2023-03-01T03:56:30;41.00;38.67;43.29;;
43787;Laerm;29409;49.306;8.500;2023-03-01T03:57:30;41.92;38.05;50.47;;
43787;Laerm;29409;49.306;8.500;2023-03-01T03:58:30;41.88;38.37;45.39;;
43787;Laerm;29409;49.306;8.500;2023-03-01T03:59:31;41.55;38.67;46.66;;
43787;Laerm;29409;49.306;8.500;2023-03-01T04:00:32;42.31;39.70;45.69;;
43787;Laerm;29409;49.306;8.500;2023-03-01T04:01:33;42.43;39.70;45.63;;
43787;Laerm;29409;49.306;8.500;2023-03-01T04:02:33;41.54;38.95;44.62;;
43787;Laerm;29409;49.306;8.500;2023-03-01T04:03:34;41.19;38.37;42.98;;
43787;Laerm;29409;49.306;8.500;2023-03-01T04:04:35;42.75;38.95;46.45;;
43787;Laerm;29409;49.306;8.500;2023-03-01T04:05:36;42.87;40.03;49.11;;
43787;Laerm;29409;49.306;8.500;2023-03-01T04:06:36;41.81;39.58;43.58;;
43787;Laerm;29409;49.306;8.500;2023-03-01T04:07:37;42.35;39.70;49.28;;
43787;Laerm;29409;49.306;8.500;2023-03-01T04:08:37;41.92;39.92;43.63;;
43787;Laerm;29409;49.306;8.500;2023-03-01T04:09:38;42.36;39.46;45.48;;
43787;Laerm;29409;49.306;8.500;2023-03-01T04:10:39;42.17;39.81;43.81;;
43787;Laerm;29409;49.306;8.500;2023-03-01T04:11:40;42.93;40.03;45.77;;
43787;Laerm;29409;49.306;8.500;2023-03-01T04:12:40;42.46;39.92;46.20;;
43787;Laerm;29409;49.306;8.500;2023-03-01T04:13:41;43.34;40.33;46.48;;
43787;Laerm;29409;49.306;8.500;2023-03-01T04:14:41;42.58;39.70;46.97;;
43787;Laerm;29409;49.306;8.500;2023-03-01T04:15:41;42.78;40.13;48.42;;
43787;Laerm;29409;49.306;8.500;2023-03-01T04:16:45;42.02;38.95;47.93;;
43787;Laerm;29409;49.306;8.500;2023-03-01T04:17:46;43.10;40.23;48.07;;
43787;Laerm;29409;49.306;8.500;2023-03-01T04:18:46;42.75;40.13;46.80;;
43787;Laerm;29409;49.306;8.500;2023-03-01T04:19:47;42.81;39.81;47.74;;
43787;Laerm;29409;49.306;8.500;2023-03-01T04:20:48;43.53;40.53;48.61;;
43787;Laerm;29409;49.306;8.500;2023-03-01T04:21:52;42.85;39.81;47.28;;
43787;Laerm;29409;49.306;8.500;2023-03-01T04:22:53;42.86;40.23;45.48;;
43787;Laerm;29409;49.306;8.500;2023-03-01T04:23:57;44.46;41.53;55.52;;
43787;Laerm;29409;49.306;8.500;2023-03-01T04:24:57;44.36;41.22;50.16;;
43787;Laerm;29409;49.306;8.500;2023-03-01T04:25:58;42.78;39.81;47.55;;
43787;Laerm;29409;49.306;8.500;2023-03-01T04:26:59;43.52;40.53;49.57;;
43787;Laerm;29409;49.306;8.500;2023-03-01T04:27:59;44.26;41.46;51.71;;
43787;Laerm;29409;49.306;8.500;2023-03-01T04:28:59;43.44;40.53;48.40;;
43787;Laerm;29409;49.306;8.500;2023-03-01T04:30:00;43.42;40.62;49.18;;
43787;Laerm;29409;49.306;8.500;2023-03-01T04:31:04;48.97;40.98;65.09;;
43787;Laerm;29409;49.306;8.500;2023-03-01T04:32:12;43.25;40.33;49.79;;
43787;Laerm;29409;49.306;8.500;2023-03-01T04:33:16;43.04;40.33;49.47;;
43787;Laerm;29409;49.306;8.500;2023-03-01T04:34:16;43.61;40.23;50.05;;
43787;Laerm;29409;49.306;8.500;2023-03-01T04:35:17;43.26;40.71;46.10;;
43787;Laerm;29409;49.306;8.500;2023-03-01T04:36:18;42.74;40.23;47.20;;
43787;Laerm;29409;49.306;8.500;2023-03-01T04:37:19;42.92;40.33;48.12;;
43787;Laerm;29409;49.306;8.500;2023-03-01T04:38:20;42.78;40.23;47.28;;
43787;Laerm;29409;49.306;8.500;2023-03-01T04:39:21;42.97;40.03;48.49;;
43787;Laerm;29409;49.306;8.500;2023-03-01T04:40:21;42.50;39.21;47.10;;
43787;Laerm;29409;49.306;8.500;2023-03-01T04:41:22;43.20;40.43;46.35;;
43787;Laerm;29409;49.306;8.500;2023-03-01T04:42:23;43.07;40.43;48.21;;
43787;Laerm;29409;49.306;8.500;2023-03-01T04:43:23;43.31;41.06;47.55;;
43787;Laerm;29409;49.306;8.500;2023-03-01T04:44:23;42.88;40.71;45.30;;
43787;Laerm;29409;49.306;8.500;2023-03-01T04:45:24;44.20;40.80;52.59;;
43787;Laerm;29409;49.306;8.500;2023-03-01T04:46:24;42.62;40.36;46.02;;
43787;Laerm;29409;49.306;8.500;2023-03-01T04:47:25;43.23;40.43;53.84;;
43787;Laerm;29409;49.306;8.500;2023-03-01T04:48:25;42.89;39.58;46.76;;
43787;Laerm;29409;49.306;8.500;2023-03-01T04:49:26;42.55;39.92;44.51;;
43787;Laerm;29409;49.306;8.500;2023-03-01T04:50:26;42.75;40.13;48.07;;
43787;Laerm;29409;49.306;8.500;2023-03-01T04:51:26;50.32;39.92;69.09;;
43787;Laerm;29409;49.306;8.500;2023-03-01T04:52:27;42.65;40.53;44.31;;
43787;Laerm;29409;49.306;8.500;2023-03-01T04:53:27;42.81;40.62;46.20;;
43787;Laerm;29409;49.306;8.500;2023-03-01T04:54:28;43.07;40.23;46.45;;
43787;Laerm;29409;49.306;8.500;2023-03-01T04:55:29;42.80;40.13;45.54;;
43787;Laerm;29409;49.306;8.500;2023-03-01T04:56:29;42.70;40.62;45.07;;
43787;Laerm;29409;49.306;8.500;2023-03-01T04:57:30;44.09;40.98;50.76;;
43787;Laerm;29409;49.306;8.500;2023-03-01T04:58:31;44.57;40.43;50.52;;
43787;Laerm;29409;49.306;8.500;2023-03-01T04:59:32;43.43;39.92;47.68;;
43787;Laerm;29409;49.306;8.500;2023-03-01T05:00:32;43.34;40.33;48.52;;
43787;Laerm;29409;49.306;8.500;2023-03-01T05:01:32;42.52;40.53;45.14;;
43787;Laerm;29409;49.306;8.500;2023-03-01T05:02:33;43.80;40.71;47.24;;
43787;Laerm;29409;49.306;8.500;2023-03-01T05:03:34;43.20;39.58;49.69;;
43787;Laerm;29409;49.306;8.500;2023-03-01T05:04:35;43.26;40.53;47.95;;
43787;Laerm;29409;49.306;8.500;2023-03-01T05:05:37;43.08;40.89;46.48;;
43787;Laerm;29409;49.306;8.500;2023-03-01T05:06:40;43.17;40.62;47.08;;
43787;Laerm;29409;49.306;8.500;2023-03-01T05:07:40;43.08;40.89;47.95;;
43787;Laerm;29409;49.306;8.500;2023-03-01T05:08:42;44.06;41.68;49.36;;
43787;Laerm;29409;49.306;8.500;2023-03-01T05:09:42;46.41;40.23;55.08;;
43787;Laerm;29409;49.306;8.500;2023-03-01T05:10:44;44.83;41.82;52.08;;
43787;Laerm;29409;49.306;8.500;2023-03-01T05:11:46;43.80;40.98;47.68;;
43787;Laerm;29409;49.306;8.500;2023-03-01T05:12:47;43.21;40.23;49.59;;
43787;Laerm;29409;49.306;8.500;2023-03-01T05:13:48;44.02;40.33;50.59;;
43787;Laerm;29409;49.306;8.500;2023-03-01T05:14:49;43.61;40.71;47.22;;
43787;Laerm;29409;49.306;8.500;2023-03-01T05:15:55;43.73;40.89;47.88;;
43787;Laerm;29409;49.306;8.500;2023-03-01T05:16:55;43.37;40.71;47.26;;
43787;Laerm;29409;49.306;8.500;2023-03-01T05:18:03;43.76;40.45;48.46;;
43787;Laerm;29409;49.306;8.500;2023-03-01T05:19:04;43.17;40.53;47.54;;
43787;Laerm;29409;49.306;8.500;2023-03-01T05:20:11;46.26;41.61;56.59;;
43787;Laerm;29409;49.306;8.500;2023-03-01T05:21:13;45.28;42.30;51.40;;
43787;Laerm;29409;49.306;8.500;2023-03-01T05:22:15;44.99;41.22;50.83;;
43787;Laerm;29409;49.306;8.500;2023-03-01T05:23:16;45.13;41.75;52.78;;
43787;Laerm;29409;49.306;8.500;2023-03-01T05:24:16;45.99;41.53;56.53;;
43787;Laerm;29409;49.306;8.500;2023-03-01T05:25:17;46.12;40.62;55.93;;
43787;Laerm;29409;49.306;8.500;2023-03-01T05:26:18;46.43;41.38;55.97;;
43787;Laerm;29409;49.306;8.500;2023-03-01T05:27:20;44.48;41.22;48.81;;
43787;Laerm;29409;49.306;8.500;2023-03-01T05:28:22;44.46;41.06;49.88;;
43787;Laerm;29409;49.306;8.500;2023-03-01T05:29:23;43.65;41.14;47.91;;
43787;Laerm;29409;49.306;8.500;2023-03-01T05:30:26;43.50;40.96;54.26;;
43787;Laerm;29409;49.306;8.500;2023-03-01T05:31:27;43.85;41.22;50.92;;
43787;Laerm;29409;49.306;8.500;2023-03-01T05:32:27;44.08;40.71;56.99;;
43787;Laerm;29409;49.306;8.500;2023-03-01T05:33:32;48.69;41.68;67.12;;
43787;Laerm;29409;49.306;8.500;2023-03-01T05:34:33;57.00;41.53;76.90;;
43787;Laerm;29409;49.306;8.500;2023-03-01T05:35:34;43.54;41.22;49.74;;
43787;Laerm;29409;49.306;8.500;2023-03-01T05:36:34;44.23;41.22;48.78;;
43787;Laerm;29409;49.306;8.500;2023-03-01T05:37:35;43.72;41.06;47.57;;
43787;Laerm;29409;49.306;8.500;2023-03-01T05:38:36;44.43;41.46;48.78;;
43787;Laerm;29409;49.306;8.500;2023-03-01T05:39:36;45.06;42.09;50.07;;
43787;Laerm;29409;49.306;8.500;2023-03-01T05:40:37;45.41;42.16;51.80;;
43787;Laerm;29409;49.306;8.500;2023-03-01T05:41:37;45.04;42.22;50.05;;
43787;Laerm;29409;49.306;8.500;2023-03-01T05:42:37;43.55;41.14;46.48;;
43787;Laerm;29409;49.306;8.500;2023-03-01T05:43:38;44.34;41.61;50.09;;
43787;Laerm;29409;49.306;8.500;2023-03-01T05:44:39;44.18;41.53;48.98;;
43787;Laerm;29409;49.306;8.500;2023-03-01T05:45:39;43.65;41.38;48.03;;
43787;Laerm;29409;49.306;8.500;2023-03-01T05:46:40;50.16;41.89;65.77;;
43787;Laerm;29409;49.306;8.500;2023-03-01T05:47:41;43.47;41.14;47.76;;
43787;Laerm;29409;49.306;8.500;2023-03-01T05:48:46;43.22;40.98;46.25;;
43787;Laerm;29409;49.306;8.500;2023-03-01T05:49:48;43.98;41.14;50.88;;
43787;Laerm;29409;49.306;8.500;2023-03-01T05:50:50;44.10;41.38;50.25;;
43787;Laerm;29409;49.306;8.500;2023-03-01T05:51:51;44.25;41.61;48.39;;
43787;Laerm;29409;49.306;8.500;2023-03-01T05:52:54;45.20;42.29;52.31;;